PWSweather.com
Personal Weather Stations
Station Observations
PWSLORIS
The Farm At Fox Bay, Loris, SC 29569

The Farm At Fox BayLoris, SC 29569

Lat: 34.067097, Lon: -78.86907

Elevation: 108

Station Type: Davis Vantage Pro2 with 24 hr. FARS and solar

http://www.lorisweather.com

Latest ConditionsUpdated 8:45:00 AM EDT Friday, May 26, 2017
Currently Today's Max Today's Min Today's Average
Temperature 68.5°F20.3°C 68.5°F20.3°C 58.1°F14.5°C 62.9°F17.2°C
Dew Point 59.9°F15.5°C 59.9°F15.5°C 55.2°F12.9°C 57.1°F13.9°C
Winds 3.5 mph W5.6 kmh W 3.5 mph W5.6 kmh W - 0.3 mph 0.5 kmh
Wind Gusts 4.6 mph7.4 kmh 4.6 mph7.4 kmh - -
Humidity 74% 91% 74% 82%
Pressure 29.96 in1014.6 mb 29.96 in1014.6 mb 29.83 in1010.2 mb -
Hour Temp Dew Point Humidity Winds Wind Gusts Pressure Precip Precip Rate Daily Precip Total
08:45 AM 68.5°F20.3°C 59.9°F15.5°C 74% 3.5 mph W5.6 kmh W 4.6 mph7.4 kmh 29.96 in1014.6 mb - 0.00 in0.0 mm 0.00 in0.0 mm
08:30 AM 67.4°F19.7°C 59.2°F15.1°C 75% 1.2 mph NW1.9 kmh NW -- 29.96 in1014.6 mb - 0.00 in0.0 mm 0.00 in0.0 mm
08:15 AM 66.2°F19.0°C 59.1°F15.1°C 78% 1.2 mph NW1.9 kmh NW -- 29.96 in1014.6 mb - 0.00 in0.0 mm 0.00 in0.0 mm
08:00 AM 65.5°F18.6°C 59.2°F15.1°C 80% Calm Calm 3.5 mph5.6 kmh 29.96 in1014.6 mb - 0.00 in0.0 mm 0.00 in0.0 mm
07:45 AM 64.2°F17.9°C 58.6°F14.8°C 82% Calm Calm -- 29.95 in1014.2 mb - 0.00 in0.0 mm 0.00 in0.0 mm
07:30 AM 63.0°F17.2°C 58.1°F14.5°C 84% Calm Calm -- 29.95 in1014.2 mb - 0.00 in0.0 mm 0.00 in0.0 mm
07:15 AM 62.1°F16.7°C 57.5°F14.2°C 85% Calm Calm -- 29.94 in1013.9 mb - 0.00 in0.0 mm 0.00 in0.0 mm
07:00 AM 60.8°F16.0°C 57.5°F14.2°C 89% Calm Calm -- 29.93 in1013.5 mb - 0.00 in0.0 mm 0.00 in0.0 mm
06:45 AM 58.8°F14.9°C 56.2°F13.4°C 91% Calm Calm -- 29.93 in1013.5 mb - 0.00 in0.0 mm 0.00 in0.0 mm
06:30 AM 58.1°F14.5°C 55.2°F12.9°C 90% Calm Calm -- 29.92 in1013.2 mb - 0.00 in0.0 mm 0.00 in0.0 mm
06:15 AM 58.7°F14.8°C 55.2°F12.9°C 88% Calm Calm -- 29.91 in1012.9 mb - 0.00 in0.0 mm 0.00 in0.0 mm
06:00 AM 59.5°F15.3°C 55.6°F13.1°C 87% Calm Calm -- 29.91 in1012.9 mb - 0.00 in0.0 mm 0.00 in0.0 mm
05:45 AM 59.7°F15.4°C 55.8°F13.2°C 87% Calm Calm -- 29.91 in1012.9 mb - 0.00 in0.0 mm 0.00 in0.0 mm
05:30 AM 60.3°F15.7°C 55.8°F13.2°C 85% Calm Calm -- 29.90 in1012.5 mb - 0.00 in0.0 mm 0.00 in0.0 mm
05:15 AM 60.8°F16.0°C 55.9°F13.3°C 84% Calm Calm 4.6 mph7.4 kmh 29.89 in1012.2 mb - 0.00 in0.0 mm 0.00 in0.0 mm
05:00 AM 61.0°F16.1°C 56.1°F13.4°C 84% Calm Calm -- 29.89 in1012.2 mb - 0.00 in0.0 mm 0.00 in0.0 mm
04:45 AM 61.6°F16.4°C 56.4°F13.6°C 83% Calm Calm -- 29.89 in1012.2 mb - 0.00 in0.0 mm 0.00 in0.0 mm
04:30 AM 62.2°F16.8°C 56.3°F13.5°C 81% Calm Calm -- 29.88 in1011.9 mb - 0.00 in0.0 mm 0.00 in0.0 mm
04:15 AM 62.6°F17.0°C 56.7°F13.7°C 81% Calm Calm -- 29.88 in1011.9 mb - 0.00 in0.0 mm 0.00 in0.0 mm
04:00 AM 63.0°F17.2°C 56.7°F13.7°C 80% Calm Calm -- 29.88 in1011.9 mb - 0.00 in0.0 mm 0.00 in0.0 mm
03:45 AM 63.1°F17.3°C 56.8°F13.8°C 80% 1.2 mph WSW1.9 kmh WSW 3.5 mph5.6 kmh 29.87 in1011.5 mb - 0.00 in0.0 mm 0.00 in0.0 mm
03:30 AM 63.1°F17.3°C 56.8°F13.8°C 80% Calm Calm -- 29.86 in1011.2 mb - 0.00 in0.0 mm 0.00 in0.0 mm
03:15 AM 62.7°F17.1°C 56.8°F13.8°C 81% Calm Calm 2.3 mph3.7 kmh 29.86 in1011.2 mb - 0.00 in0.0 mm 0.00 in0.0 mm
03:00 AM 62.5°F16.9°C 56.9°F13.8°C 82% Calm Calm -- 29.85 in1010.8 mb - 0.00 in0.0 mm 0.00 in0.0 mm
02:45 AM 62.8°F17.1°C 57.2°F14.0°C 82% Calm Calm -- 29.85 in1010.8 mb - 0.00 in0.0 mm 0.00 in0.0 mm
02:30 AM 63.2°F17.3°C 57.3°F14.1°C 81% Calm Calm -- 29.85 in1010.8 mb - 0.00 in0.0 mm 0.00 in0.0 mm
02:15 AM 63.5°F17.5°C 57.2°F14.0°C 80% 1.2 mph SSW1.9 kmh SSW 3.5 mph5.6 kmh 29.85 in1010.8 mb - 0.00 in0.0 mm 0.00 in0.0 mm
02:00 AM 64.0°F17.8°C 57.0°F13.9°C 78% Calm Calm -- 29.85 in1010.8 mb - 0.00 in0.0 mm 0.00 in0.0 mm
01:45 AM 64.3°F17.9°C 57.3°F14.1°C 78% 1.2 mph S1.9 kmh S 3.5 mph5.6 kmh 29.84 in1010.5 mb - 0.00 in0.0 mm 0.00 in0.0 mm
01:30 AM 64.1°F17.8°C 57.5°F14.2°C 79% Calm Calm -- 29.84 in1010.5 mb - 0.00 in0.0 mm 0.00 in0.0 mm
01:15 AM 64.4°F18.0°C 57.7°F14.3°C 79% Calm Calm 4.6 mph7.4 kmh 29.84 in1010.5 mb - 0.00 in0.0 mm 0.00 in0.0 mm
01:00 AM 64.2°F17.9°C 57.5°F14.2°C 79% Calm Calm -- 29.84 in1010.5 mb - 0.00 in0.0 mm 0.00 in0.0 mm
12:45 AM 64.1°F17.8°C 57.4°F14.1°C 79% Calm Calm 2.3 mph3.7 kmh 29.84 in1010.5 mb - 0.00 in0.0 mm 0.00 in0.0 mm
12:30 AM 64.3°F17.9°C 57.6°F14.2°C 79% Calm Calm -- 29.84 in1010.5 mb - 0.00 in0.0 mm 0.00 in0.0 mm
12:15 AM 64.5°F18.1°C 57.5°F14.2°C 78% Calm Calm -- 29.83 in1010.2 mb - 0.00 in0.0 mm 0.00 in0.0 mm
12:00 AM 64.9°F18.3°C 57.5°F14.2°C 77% Calm Calm -- 29.83 in1010.2 mb - 0.00 in0.0 mm 0.00 in0.0 mm